createdAt,value
2023-08-28T00:01:08.652Z,74580.03
2023-08-28T00:03:54.921Z,74588.19
2023-08-28T00:06:41.232Z,74596.34
2023-08-28T00:09:27.473Z,74602.47
2023-08-28T00:12:13.879Z,74606.53
2023-08-28T00:15:01.799Z,74604.50
2023-08-28T00:17:48.396Z,74610.63
2023-08-28T00:20:35.208Z,74622.84
2023-08-28T00:23:21.441Z,74626.91
2023-08-28T00:26:08.194Z,74643.22
2023-08-28T00:28:54.384Z,74639.13
2023-08-28T00:31:42.149Z,74659.53
2023-08-28T00:34:28.987Z,74651.38
2023-08-28T00:37:15.273Z,74651.38
2023-08-28T00:40:01.660Z,74653.41
2023-08-28T00:42:47.948Z,74665.63
2023-08-28T00:45:35.634Z,74663.59
2023-08-28T00:48:24.163Z,74667.69
2023-08-28T00:51:11.065Z,74673.78
2023-08-28T00:53:57.592Z,74683.97
2023-08-28T00:56:44.496Z,74673.78
2023-08-28T00:59:31.137Z,74688.06
2023-08-28T01:02:17.803Z,74681.94
2023-08-28T01:05:06.781Z,74683.97
2023-08-28T01:08:00.461Z,74692.13
2023-08-28T01:10:53.758Z,74692.13
2023-08-28T01:13:47.676Z,74675.81
2023-08-28T01:16:37.652Z,74688.06
2023-08-28T01:19:30.853Z,74696.19
2023-08-28T01:22:24.653Z,74683.97
2023-08-28T01:25:13.479Z,74679.91
2023-08-28T01:28:00.927Z,74669.72
2023-08-28T01:30:49.765Z,74675.81
2023-08-28T01:33:37.588Z,74667.69
2023-08-28T01:36:29.178Z,74683.97
2023-08-28T01:39:23.285Z,74677.88
2023-08-28T01:42:12.548Z,74671.75
2023-08-28T01:44:59.085Z,74698.25
2023-08-28T01:47:45.732Z,74722.69
2023-08-28T01:50:32.381Z,74724.75
2023-08-28T01:53:18.518Z,74726.78
2023-08-28T01:56:26.267Z,74724.75
2023-08-28T01:59:13.939Z,74708.44
2023-08-28T02:02:00.363Z,74710.47
2023-08-28T02:04:47.562Z,74716.59
2023-08-28T02:07:33.898Z,74716.59
2023-08-28T02:10:20.304Z,74696.19
2023-08-28T02:13:06.659Z,74708.44
2023-08-28T02:15:54.358Z,74714.53
2023-08-28T02:18:41.336Z,74728.81
2023-08-28T02:21:27.495Z,74745.13
2023-08-28T02:24:14.125Z,74728.81
2023-08-28T02:27:01.282Z,74728.81
2023-08-28T02:29:47.741Z,74720.66
2023-08-28T02:32:35.404Z,74728.81
2023-08-28T02:35:23.204Z,74730.84
2023-08-28T02:38:11.584Z,74736.97
2023-08-28T02:41:05.447Z,74732.88
2023-08-28T02:43:51.949Z,74728.81
2023-08-28T02:46:38.467Z,74714.53
2023-08-28T02:49:26.872Z,74700.28
2023-08-28T02:52:13.042Z,74696.19
2023-08-28T02:54:59.185Z,74681.94
2023-08-28T02:57:45.743Z,74704.34
2023-08-28T03:00:31.851Z,74686.00
2023-08-28T03:03:18.194Z,74688.06
2023-08-28T03:06:06.997Z,74679.91
2023-08-28T03:08:53.581Z,74688.06
2023-08-28T03:11:40.120Z,74714.53
2023-08-28T03:14:26.927Z,74745.13
2023-08-28T03:17:14.917Z,74749.19
2023-08-28T03:20:01.366Z,74683.97
2023-08-28T03:22:49.101Z,74663.59
2023-08-28T03:25:35.382Z,74694.16
2023-08-28T03:28:21.965Z,74702.31
2023-08-28T03:31:08.764Z,74688.06
2023-08-28T03:33:55.856Z,74667.69
2023-08-28T03:36:43.138Z,74671.75
2023-08-28T03:39:31.241Z,74671.75
2023-08-28T03:42:17.561Z,74671.75
2023-08-28T03:45:03.759Z,74675.81
2023-08-28T03:47:50.074Z,74673.78
2023-08-28T03:50:36.285Z,74663.59
2023-08-28T03:53:22.579Z,74663.59
2023-08-28T03:56:11.060Z,74655.44
2023-08-28T03:58:57.716Z,74643.22
2023-08-28T04:01:44.510Z,74643.22
2023-08-28T04:04:31.255Z,74626.91
2023-08-28T04:07:26.270Z,74637.09
2023-08-28T04:10:13.732Z,74645.25
2023-08-28T04:13:02.317Z,74643.22
2023-08-28T04:15:50.992Z,74645.25
2023-08-28T04:18:37.737Z,74645.25
2023-08-28T04:21:24.313Z,74639.13
2023-08-28T04:24:10.825Z,74647.28
2023-08-28T04:26:57.032Z,74628.94
2023-08-28T04:29:45.405Z,74633.03
2023-08-28T04:32:31.942Z,74651.38
2023-08-28T04:35:18.212Z,74635.06
2023-08-28T04:38:04.762Z,74635.06
2023-08-28T04:40:51.214Z,74622.84
2023-08-28T04:43:37.329Z,74643.22
2023-08-28T04:46:26.746Z,74628.94
2023-08-28T04:49:13.403Z,74626.91
2023-08-28T04:51:59.584Z,74610.63
2023-08-28T04:54:45.897Z,74610.63
2023-08-28T04:57:34.106Z,74610.63
2023-08-28T05:00:21.136Z,74612.66
2023-08-28T05:03:09.376Z,74616.72
2023-08-28T05:05:56.486Z,74620.81
2023-08-28T05:08:43.426Z,74626.91
2023-08-28T05:11:31.322Z,74624.88
2023-08-28T05:14:17.692Z,74639.13
2023-08-28T05:17:04.179Z,74639.13
2023-08-28T05:19:51.791Z,74657.47
2023-08-28T05:22:38.172Z,74645.25
2023-08-28T05:25:24.755Z,74643.22
2023-08-28T05:28:11.018Z,74635.06
2023-08-28T05:30:57.398Z,74624.88
2023-08-28T05:33:43.785Z,74610.63
2023-08-28T05:36:31.309Z,74614.69
2023-08-28T05:39:17.552Z,74610.63
2023-08-28T05:42:04.125Z,74622.84
2023-08-28T05:44:50.376Z,74626.91
2023-08-28T05:47:37.745Z,74618.75
2023-08-28T05:50:24.560Z,74602.47
2023-08-28T05:53:12.230Z,74610.63
2023-08-28T05:55:58.963Z,74618.75
2023-08-28T05:58:45.667Z,74624.88
2023-08-28T06:01:32.210Z,74614.69
2023-08-28T06:04:18.557Z,74616.72
2023-08-28T06:07:08.340Z,74586.16
2023-08-28T06:09:56.304Z,74582.09
2023-08-28T06:12:42.649Z,74561.69
2023-08-28T06:15:29.352Z,74553.56
2023-08-28T06:18:15.687Z,74569.84
2023-08-28T06:21:02.150Z,74561.69
2023-08-28T06:23:48.520Z,74561.69
2023-08-28T06:26:36.296Z,74584.13
2023-08-28T06:29:22.581Z,74573.94
2023-08-28T06:32:08.903Z,74561.69
2023-08-28T06:34:55.329Z,74549.47
2023-08-28T06:37:41.544Z,74535.22
2023-08-28T06:40:27.839Z,74541.31
2023-08-28T06:43:15.426Z,74537.25
2023-08-28T06:46:01.628Z,74545.41
2023-08-28T06:48:49.356Z,74557.63
2023-08-28T06:51:35.726Z,74559.66
2023-08-28T06:54:22.035Z,74553.56
2023-08-28T06:57:08.199Z,74551.50
2023-08-28T06:59:55.949Z,74529.09
2023-08-28T07:02:42.945Z,74520.94
2023-08-28T07:05:29.758Z,74520.94
2023-08-28T07:08:16.107Z,74541.31
2023-08-28T07:11:02.365Z,74522.97
2023-08-28T07:13:48.668Z,74527.06
2023-08-28T07:16:36.335Z,74514.84
2023-08-28T07:19:23.142Z,74514.84
2023-08-28T07:22:09.606Z,74498.53
2023-08-28T07:24:56.644Z,74488.34
2023-08-28T07:27:42.788Z,74492.41
2023-08-28T07:30:29.139Z,74494.44
2023-08-28T07:33:18.503Z,74488.34
2023-08-28T07:36:05.700Z,74476.13
2023-08-28T07:38:52.465Z,74480.19
2023-08-28T07:41:38.782Z,74463.88
2023-08-28T07:44:25.776Z,74463.88
2023-08-28T07:47:13.816Z,74447.59
2023-08-28T07:50:01.596Z,74414.97
2023-08-28T07:52:48.192Z,74419.06
2023-08-28T07:55:34.505Z,74447.59
2023-08-28T07:58:21.000Z,74445.53
2023-08-28T08:01:07.973Z,74463.88
2023-08-28T08:03:54.689Z,74453.69
2023-08-28T08:06:43.692Z,74447.59
2023-08-28T08:09:30.485Z,74439.44
2023-08-28T08:12:16.708Z,74427.22
2023-08-28T08:15:03.887Z,74404.78
2023-08-28T08:17:50.560Z,74386.44
2023-08-28T08:20:37.222Z,74380.34
2023-08-28T08:23:24.903Z,74372.19
2023-08-28T08:26:11.556Z,74341.63
2023-08-28T08:28:57.903Z,74337.53
2023-08-28T08:31:44.144Z,74341.63
2023-08-28T08:34:33.417Z,74304.94
2023-08-28T08:37:19.960Z,74313.09
2023-08-28T08:40:13.633Z,74309.00
2023-08-28T08:43:00.200Z,74284.56
2023-08-28T08:45:49.690Z,74276.41
2023-08-28T08:48:38.395Z,74227.50
2023-08-28T08:51:27.654Z,74207.13
2023-08-28T08:54:20.037Z,74237.69
2023-08-28T08:57:12.422Z,74264.19
2023-08-28T08:59:59.139Z,74280.50
2023-08-28T09:02:45.917Z,74300.88
2023-08-28T09:05:32.746Z,74298.81
2023-08-28T09:08:22.833Z,74272.34
2023-08-28T09:11:10.042Z,74284.56
2023-08-28T09:13:58.000Z,74292.72
2023-08-28T09:16:44.285Z,74288.63
2023-08-28T09:19:32.723Z,74309.00
2023-08-28T09:22:22.843Z,74321.25
2023-08-28T09:25:10.756Z,74335.50
2023-08-28T09:27:58.743Z,74327.34
2023-08-28T09:30:46.798Z,74313.09
2023-08-28T09:34:01.463Z,74313.09
2023-08-28T09:36:52.267Z,74300.88
2023-08-28T09:39:42.173Z,74300.88
2023-08-28T09:42:28.691Z,74309.00
2023-08-28T09:45:15.288Z,74298.81
2023-08-28T09:48:07.734Z,74288.63
2023-08-28T09:50:54.985Z,74260.09
2023-08-28T09:53:41.912Z,74256.03
2023-08-28T09:56:32.551Z,74243.81
2023-08-28T09:59:19.357Z,74194.91
2023-08-28T10:02:20.076Z,74186.75
2023-08-28T10:05:11.473Z,74156.19
2023-08-28T10:08:03.848Z,74160.25
2023-08-28T10:10:50.154Z,74154.16
2023-08-28T10:13:36.951Z,74150.06
2023-08-28T10:16:27.568Z,74121.56
2023-08-28T10:19:20.815Z,74103.22
2023-08-28T10:22:10.383Z,74064.50
2023-08-28T10:24:59.430Z,74058.38
2023-08-28T10:27:46.273Z,74064.50
2023-08-28T10:30:36.514Z,74062.47
2023-08-28T10:33:24.318Z,74042.09
2023-08-28T10:36:34.125Z,74046.16
2023-08-28T10:39:28.376Z,74035.97
2023-08-28T10:42:17.740Z,74019.66
2023-08-28T10:45:04.614Z,74003.38
2023-08-28T10:47:51.582Z,74009.47
2023-08-28T10:50:38.978Z,73989.09
2023-08-28T10:53:25.804Z,73978.91
2023-08-28T10:56:14.548Z,73962.63
2023-08-28T10:59:22.970Z,73962.63
2023-08-28T11:02:10.434Z,73966.69
2023-08-28T11:05:15.084Z,73958.53
2023-08-28T11:08:05.375Z,73954.47
2023-08-28T11:11:21.279Z,73934.09
2023-08-28T11:14:15.861Z,73921.88
2023-08-28T11:17:06.331Z,73930.00
2023-08-28T11:20:06.200Z,73956.50
2023-08-28T11:23:02.898Z,73954.47
2023-08-28T11:25:49.975Z,73962.63
2023-08-28T11:28:46.408Z,73966.69
2023-08-28T11:31:34.941Z,73983.00
2023-08-28T11:34:21.693Z,73989.09
2023-08-28T11:37:08.135Z,74001.34
2023-08-28T11:39:54.551Z,73999.28
2023-08-28T11:42:41.016Z,74017.63
2023-08-28T11:45:28.825Z,74023.75
2023-08-28T11:48:15.232Z,74033.94
2023-08-28T11:51:02.469Z,74040.03
2023-08-28T11:53:48.885Z,74040.03
2023-08-28T11:56:36.075Z,74029.84
2023-08-28T11:59:24.069Z,74011.53
2023-08-28T12:02:14.385Z,73995.22
2023-08-28T12:05:02.441Z,73987.06
2023-08-28T12:07:51.408Z,73983.00
2023-08-28T12:10:39.082Z,73964.66
2023-08-28T12:13:26.046Z,73962.63
2023-08-28T12:16:17.127Z,73954.47
2023-08-28T12:19:06.215Z,73956.50
2023-08-28T12:21:53.975Z,73976.88
2023-08-28T12:24:41.754Z,73972.81
2023-08-28T12:27:29.305Z,73976.88
2023-08-28T12:30:22.856Z,73962.63
2023-08-28T12:33:10.460Z,73985.03
2023-08-28T12:36:00.040Z,73991.16
2023-08-28T12:38:48.490Z,73995.22
2023-08-28T12:41:37.147Z,73978.91
2023-08-28T12:44:25.044Z,73974.84
2023-08-28T12:47:13.077Z,73991.16
2023-08-28T12:50:00.014Z,74003.38
2023-08-28T12:52:52.249Z,74015.59
2023-08-28T12:55:39.025Z,74011.53
2023-08-28T12:58:25.581Z,74005.41
2023-08-28T13:01:11.849Z,74003.38
2023-08-28T13:03:58.439Z,73983.00
2023-08-28T13:06:45.130Z,73970.78
2023-08-28T13:09:32.914Z,73970.78
2023-08-28T13:12:20.790Z,73972.81
2023-08-28T13:15:11.623Z,73970.78
2023-08-28T13:18:00.188Z,73966.69
2023-08-28T13:20:48.771Z,73956.50
2023-08-28T13:23:35.382Z,73974.84
2023-08-28T13:26:23.508Z,73964.66
2023-08-28T13:29:10.215Z,73950.41
2023-08-28T13:31:56.777Z,73958.53
2023-08-28T13:34:43.630Z,73946.31
2023-08-28T13:37:30.506Z,73938.16
2023-08-28T13:40:16.896Z,73932.06
2023-08-28T13:43:04.990Z,73921.88
2023-08-28T13:45:52.172Z,73913.72
2023-08-28T13:48:39.650Z,73913.72
2023-08-28T13:51:26.213Z,73905.56
2023-08-28T13:54:16.081Z,73901.50
2023-08-28T13:57:03.094Z,73905.56
2023-08-28T13:59:52.465Z,73909.66
2023-08-28T14:02:39.466Z,73899.44
2023-08-28T14:05:26.027Z,73899.44
2023-08-28T14:08:12.228Z,73897.41
2023-08-28T14:10:58.750Z,73901.50
2023-08-28T14:13:45.191Z,73901.50
2023-08-28T14:16:32.911Z,73913.72
2023-08-28T14:19:19.552Z,73903.53
2023-08-28T14:22:06.413Z,73905.56
2023-08-28T14:24:53.862Z,73897.41
2023-08-28T14:27:51.624Z,73889.28
2023-08-28T14:30:45.164Z,73893.34
2023-08-28T14:33:35.940Z,73889.28
2023-08-28T14:36:24.394Z,73883.16
2023-08-28T14:39:11.862Z,73877.03
2023-08-28T14:41:58.342Z,73881.13
2023-08-28T14:44:44.584Z,73868.91
2023-08-28T14:47:30.981Z,73881.13
2023-08-28T14:50:23.767Z,73901.50
2023-08-28T14:53:10.175Z,73885.19
2023-08-28T14:55:57.339Z,73895.38
2023-08-28T14:58:43.901Z,73897.41
2023-08-28T15:01:30.828Z,73893.34
2023-08-28T15:04:17.275Z,73901.50
2023-08-28T15:07:05.442Z,73901.50
2023-08-28T15:09:52.070Z,73901.50
2023-08-28T15:12:38.514Z,73893.34
2023-08-28T15:15:25.600Z,73889.28
2023-08-28T15:18:12.352Z,73883.16
2023-08-28T15:20:58.685Z,73881.13
2023-08-28T15:23:46.253Z,73879.06
2023-08-28T15:26:33.260Z,73889.28
2023-08-28T15:29:19.571Z,73881.13
2023-08-28T15:32:06.407Z,73877.03
2023-08-28T15:34:53.226Z,73877.03
2023-08-28T15:37:40.221Z,73870.94
2023-08-28T15:40:28.427Z,73875.00
2023-08-28T15:43:14.928Z,73864.81
2023-08-28T15:46:03.307Z,73877.03
2023-08-28T15:48:50.273Z,73879.06
2023-08-28T15:51:36.447Z,73877.03
2023-08-28T15:54:22.831Z,73868.91
2023-08-28T15:57:11.074Z,73872.97
2023-08-28T15:59:57.417Z,73893.34
2023-08-28T16:02:43.648Z,73903.53
2023-08-28T16:05:30.585Z,73913.72
2023-08-28T16:08:16.694Z,73905.56
2023-08-28T16:11:03.079Z,73909.66
2023-08-28T16:13:50.730Z,73905.56
2023-08-28T16:16:37.071Z,73907.59
2023-08-28T16:19:26.479Z,73917.78
2023-08-28T16:22:14.923Z,73925.94
2023-08-28T16:25:03.875Z,73925.94
2023-08-28T16:27:50.099Z,73919.84
2023-08-28T16:30:38.026Z,73913.72
2023-08-28T16:33:24.939Z,73907.59
2023-08-28T16:36:11.185Z,73903.53
2023-08-28T16:38:57.854Z,73901.50
2023-08-28T16:41:44.322Z,73891.31
2023-08-28T16:44:31.962Z,73883.16
2023-08-28T16:47:21.366Z,73893.34
2023-08-28T16:50:08.579Z,73913.72
2023-08-28T16:52:55.022Z,73983.00
2023-08-28T16:55:42.320Z,74048.19
2023-08-28T16:58:29.303Z,74060.41
2023-08-28T17:01:15.545Z,74078.75
2023-08-28T17:04:03.239Z,74127.66
2023-08-28T17:06:59.952Z,74143.97
2023-08-28T17:09:47.593Z,74154.16
2023-08-28T17:12:35.683Z,74166.38
2023-08-28T17:15:21.947Z,74219.34
2023-08-28T17:18:09.136Z,74258.06
2023-08-28T17:20:56.750Z,74272.34
2023-08-28T17:23:44.698Z,74268.25
2023-08-28T17:26:31.290Z,74260.09
2023-08-28T17:29:20.664Z,74264.19
2023-08-28T17:32:07.148Z,74264.19
2023-08-28T17:34:53.690Z,74270.28
2023-08-28T17:37:42.063Z,74290.69
2023-08-28T17:40:28.611Z,74256.03
2023-08-28T17:43:14.802Z,74241.78
2023-08-28T17:46:01.237Z,74280.50
2023-08-28T17:48:47.808Z,74276.41
2023-08-28T17:51:36.910Z,74260.09
2023-08-28T17:54:25.498Z,74276.41
2023-08-28T17:57:11.904Z,74290.69
2023-08-28T17:59:58.916Z,74294.75
2023-08-28T18:03:00.436Z,74292.72
2023-08-28T18:05:53.816Z,74300.88
2023-08-28T18:08:40.670Z,74296.78
2023-08-28T18:11:29.470Z,74262.16
2023-08-28T18:14:18.855Z,74268.25
2023-08-28T18:17:07.040Z,74321.25
2023-08-28T18:19:53.544Z,74366.06
2023-08-28T18:22:39.902Z,74378.28
2023-08-28T18:25:26.367Z,74382.38
2023-08-28T18:28:16.931Z,74402.75
2023-08-28T18:31:07.301Z,74431.28
2023-08-28T18:33:55.553Z,74453.69
2023-08-28T18:36:42.122Z,74455.72
2023-08-28T18:39:29.483Z,74463.88
2023-08-28T18:42:19.495Z,74445.53
2023-08-28T18:45:11.835Z,74443.50
2023-08-28T18:48:00.084Z,74433.31
2023-08-28T18:50:49.883Z,74451.66
2023-08-28T18:53:38.159Z,74465.91
2023-08-28T18:56:24.672Z,74443.50
2023-08-28T18:59:11.868Z,74402.75
2023-08-28T19:02:00.079Z,74402.75
2023-08-28T19:04:47.691Z,74390.53
2023-08-28T19:07:33.930Z,74372.19
2023-08-28T19:10:20.391Z,74382.38
2023-08-28T19:13:08.343Z,74398.69
2023-08-28T19:15:59.037Z,74408.88
2023-08-28T19:18:52.490Z,74398.69
2023-08-28T19:21:39.342Z,74382.38
2023-08-28T19:24:25.960Z,74408.88
2023-08-28T19:27:14.293Z,74445.53
2023-08-28T19:30:05.143Z,74429.25
2023-08-28T19:32:51.561Z,74402.75
2023-08-28T19:35:42.390Z,74370.16
2023-08-28T19:38:28.771Z,74345.69
2023-08-28T19:41:15.191Z,74343.66
2023-08-28T19:44:01.458Z,74351.81
2023-08-28T19:46:48.206Z,74366.06
2023-08-28T19:49:34.937Z,74402.75
2023-08-28T19:52:22.644Z,74431.28
2023-08-28T19:55:14.934Z,74419.06
2023-08-28T19:58:01.630Z,74392.56
2023-08-28T20:00:48.089Z,74355.88
2023-08-28T20:03:34.974Z,74343.66
2023-08-28T20:06:21.605Z,74331.44
2023-08-28T20:09:09.301Z,74333.47
2023-08-28T20:11:55.704Z,74329.38
2023-08-28T20:14:46.594Z,74341.63
2023-08-28T20:17:34.362Z,74364.03
2023-08-28T20:20:21.442Z,74333.47
2023-08-28T20:23:08.016Z,74327.34
2023-08-28T20:25:55.938Z,74325.31
2023-08-28T20:28:42.236Z,74321.25
2023-08-28T20:31:28.628Z,74313.09
2023-08-28T20:34:15.370Z,74321.25
2023-08-28T20:37:02.130Z,74345.69
2023-08-28T20:39:48.954Z,74388.50
2023-08-28T20:42:39.031Z,74404.78
2023-08-28T20:45:25.577Z,74376.25
2023-08-28T20:48:12.773Z,74368.09
2023-08-28T20:51:00.807Z,74368.09
2023-08-28T20:53:47.432Z,74362.00
2023-08-28T20:56:33.866Z,74327.34
2023-08-28T20:59:21.757Z,74317.16
2023-08-28T21:02:08.046Z,74333.47
2023-08-28T21:04:54.252Z,74353.84
2023-08-28T21:07:40.480Z,74359.97
2023-08-28T21:10:26.782Z,74353.84
2023-08-28T21:13:13.162Z,74349.78
2023-08-28T21:16:01.935Z,74347.72
2023-08-28T21:18:48.802Z,74370.16
2023-08-28T21:21:35.123Z,74414.97
2023-08-28T21:24:21.657Z,74443.50
2023-08-28T21:27:07.996Z,74439.44
2023-08-28T21:29:54.202Z,74402.75
2023-08-28T21:32:45.442Z,74378.28
2023-08-28T21:35:32.186Z,74390.53
2023-08-28T21:38:18.619Z,74382.38
2023-08-28T21:41:08.234Z,74394.59
2023-08-28T21:43:56.380Z,74388.50
2023-08-28T21:46:42.644Z,74382.38
2023-08-28T21:49:30.850Z,74378.28
2023-08-28T21:52:16.991Z,74372.19
2023-08-28T21:55:04.209Z,74353.84
2023-08-28T21:57:50.834Z,74343.66
2023-08-28T22:00:38.525Z,74337.53
2023-08-28T22:03:25.063Z,74331.44
2023-08-28T22:06:13.352Z,74319.19
2023-08-28T22:08:59.892Z,74321.25
2023-08-28T22:11:46.205Z,74341.63
2023-08-28T22:14:32.738Z,74355.88
2023-08-28T22:17:19.739Z,74370.16
2023-08-28T22:20:07.288Z,74366.06
2023-08-28T22:22:55.736Z,74353.84
2023-08-28T22:25:43.226Z,74345.69
2023-08-28T22:28:32.781Z,74343.66
2023-08-28T22:31:19.077Z,74329.38
2023-08-28T22:34:05.899Z,74341.63
2023-08-28T22:36:52.121Z,74357.91
2023-08-28T22:39:39.807Z,74339.59
2023-08-28T22:42:26.852Z,74353.84
2023-08-28T22:45:13.682Z,74333.47
2023-08-28T22:48:00.565Z,74317.16
2023-08-28T22:50:48.231Z,74304.94
2023-08-28T22:53:35.135Z,74313.09
2023-08-28T22:56:22.780Z,74302.91
2023-08-28T22:59:08.949Z,74296.78
2023-08-28T23:01:55.366Z,74306.97
2023-08-28T23:04:41.652Z,74302.91
2023-08-28T23:07:28.358Z,74290.69
2023-08-28T23:10:14.804Z,74300.88
2023-08-28T23:13:02.691Z,74288.63
2023-08-28T23:15:48.903Z,74284.56
2023-08-28T23:18:35.792Z,74302.91
2023-08-28T23:21:22.045Z,74325.31
2023-08-28T23:24:10.409Z,74317.16
2023-08-28T23:26:58.029Z,74313.09
2023-08-28T23:29:45.967Z,74300.88
2023-08-28T23:32:32.929Z,74302.91
2023-08-28T23:35:19.366Z,74317.16
2023-08-28T23:38:06.326Z,74317.16
2023-08-28T23:40:53.853Z,74329.38
2023-08-28T23:43:39.981Z,74331.44
2023-08-28T23:46:27.700Z,74337.53
2023-08-28T23:49:13.805Z,74327.34
2023-08-28T23:52:00.049Z,74325.31
2023-08-28T23:54:46.420Z,74313.09
2023-08-28T23:57:32.756Z,74300.88
